sensor_id;sensor_type;location;lat;lon;timestamp;P1;durP1;ratioP1;P2;durP2;ratioP2
5845;SDS011;2949;50.778;7.094;2023-03-13T00:01:10;16.80;;;2.90;;
5845;SDS011;2949;50.778;7.094;2023-03-13T00:03:48;11.80;;;2.77;;
5845;SDS011;2949;50.778;7.094;2023-03-13T00:06:13;12.00;;;3.17;;
5845;SDS011;2949;50.778;7.094;2023-03-13T00:08:40;14.00;;;3.10;;
5845;SDS011;2949;50.778;7.094;2023-03-13T00:11:06;22.43;;;3.53;;
5845;SDS011;2949;50.778;7.094;2023-03-13T00:13:33;15.23;;;2.83;;
5845;SDS011;2949;50.778;7.094;2023-03-13T00:16:00;17.97;;;2.60;;
5845;SDS011;2949;50.778;7.094;2023-03-13T00:18:27;16.70;;;2.80;;
5845;SDS011;2949;50.778;7.094;2023-03-13T00:20:59;12.60;;;1.90;;
5845;SDS011;2949;50.778;7.094;2023-03-13T00:23:26;14.53;;;2.63;;
5845;SDS011;2949;50.778;7.094;2023-03-13T00:25:56;11.83;;;2.80;;
5845;SDS011;2949;50.778;7.094;2023-03-13T00:28:23;16.87;;;2.67;;
5845;SDS011;2949;50.778;7.094;2023-03-13T00:30:48;16.00;;;2.60;;
5845;SDS011;2949;50.778;7.094;2023-03-13T00:33:14;15.67;;;2.63;;
5845;SDS011;2949;50.778;7.094;2023-03-13T00:35:39;14.63;;;2.57;;
5845;SDS011;2949;50.778;7.094;2023-03-13T00:38:05;26.23;;;3.03;;
5845;SDS011;2949;50.778;7.094;2023-03-13T00:40:30;28.20;;;3.33;;
5845;SDS011;2949;50.778;7.094;2023-03-13T00:42:56;13.90;;;2.93;;
5845;SDS011;2949;50.778;7.094;2023-03-13T00:45:21;16.10;;;3.40;;
5845;SDS011;2949;50.778;7.094;2023-03-13T00:47:47;11.67;;;2.83;;
5845;SDS011;2949;50.778;7.094;2023-03-13T00:50:14;19.57;;;2.73;;
5845;SDS011;2949;50.778;7.094;2023-03-13T00:52:39;20.43;;;2.30;;
5845;SDS011;2949;50.778;7.094;2023-03-13T00:55:05;14.63;;;3.13;;
5845;SDS011;2949;50.778;7.094;2023-03-13T00:57:31;17.40;;;3.10;;
5845;SDS011;2949;50.778;7.094;2023-03-13T01:00:01;20.40;;;3.00;;
5845;SDS011;2949;50.778;7.094;2023-03-13T01:02:29;11.07;;;2.50;;
5845;SDS011;2949;50.778;7.094;2023-03-13T01:04:55;15.97;;;2.57;;
5845;SDS011;2949;50.778;7.094;2023-03-13T01:07:20;22.83;;;3.07;;
5845;SDS011;2949;50.778;7.094;2023-03-13T01:09:46;15.50;;;3.00;;
5845;SDS011;2949;50.778;7.094;2023-03-13T01:12:11;17.83;;;3.20;;
5845;SDS011;2949;50.778;7.094;2023-03-13T01:14:37;15.17;;;2.40;;
5845;SDS011;2949;50.778;7.094;2023-03-13T01:17:02;16.20;;;2.70;;
5845;SDS011;2949;50.778;7.094;2023-03-13T01:19:28;15.90;;;2.77;;
5845;SDS011;2949;50.778;7.094;2023-03-13T01:21:53;12.87;;;2.73;;
5845;SDS011;2949;50.778;7.094;2023-03-13T01:24:19;23.43;;;3.30;;
5845;SDS011;2949;50.778;7.094;2023-03-13T01:26:44;21.13;;;2.80;;
5845;SDS011;2949;50.778;7.094;2023-03-13T01:29:10;15.83;;;2.40;;
5845;SDS011;2949;50.778;7.094;2023-03-13T01:31:37;14.90;;;2.93;;
5845;SDS011;2949;50.778;7.094;2023-03-13T01:34:03;10.57;;;2.03;;
5845;SDS011;2949;50.778;7.094;2023-03-13T01:36:30;6.80;;;2.20;;
5845;SDS011;2949;50.778;7.094;2023-03-13T01:38:57;17.80;;;2.60;;
5845;SDS011;2949;50.778;7.094;2023-03-13T01:41:24;15.83;;;2.90;;
5845;SDS011;2949;50.778;7.094;2023-03-13T01:43:51;19.23;;;3.30;;
5845;SDS011;2949;50.778;7.094;2023-03-13T01:46:21;13.73;;;2.60;;
5845;SDS011;2949;50.778;7.094;2023-03-13T01:48:59;14.93;;;3.37;;
5845;SDS011;2949;50.778;7.094;2023-03-13T01:51:31;9.53;;;2.13;;
5845;SDS011;2949;50.778;7.094;2023-03-13T01:56:45;10.30;;;2.00;;
5845;SDS011;2949;50.778;7.094;2023-03-13T01:59:19;7.67;;;2.10;;
5845;SDS011;2949;50.778;7.094;2023-03-13T02:01:51;9.83;;;1.80;;
5845;SDS011;2949;50.778;7.094;2023-03-13T02:04:19;11.97;;;2.10;;
5845;SDS011;2949;50.778;7.094;2023-03-13T02:06:47;5.40;;;1.70;;
5845;SDS011;2949;50.778;7.094;2023-03-13T02:09:17;5.37;;;1.43;;
5845;SDS011;2949;50.778;7.094;2023-03-13T02:11:48;8.90;;;1.40;;
5845;SDS011;2949;50.778;7.094;2023-03-13T02:14:17;5.60;;;1.67;;
5845;SDS011;2949;50.778;7.094;2023-03-13T02:16:45;8.90;;;2.03;;
5845;SDS011;2949;50.778;7.094;2023-03-13T02:19:17;4.13;;;1.17;;
5845;SDS011;2949;50.778;7.094;2023-03-13T02:21:54;6.33;;;1.43;;
5845;SDS011;2949;50.778;7.094;2023-03-13T02:24:31;2.90;;;1.03;;
5845;SDS011;2949;50.778;7.094;2023-03-13T02:27:04;4.27;;;1.53;;
5845;SDS011;2949;50.778;7.094;2023-03-13T02:29:29;10.93;;;1.50;;
5845;SDS011;2949;50.778;7.094;2023-03-13T02:31:55;4.30;;;1.40;;
5845;SDS011;2949;50.778;7.094;2023-03-13T02:34:22;2.73;;;1.10;;
5845;SDS011;2949;50.778;7.094;2023-03-13T02:36:52;5.50;;;1.37;;
5845;SDS011;2949;50.778;7.094;2023-03-13T02:39:19;5.70;;;1.40;;
5845;SDS011;2949;50.778;7.094;2023-03-13T02:41:47;6.20;;;1.30;;
5845;SDS011;2949;50.778;7.094;2023-03-13T02:44:14;7.53;;;1.33;;
5845;SDS011;2949;50.778;7.094;2023-03-13T02:46:46;4.73;;;0.90;;
5845;SDS011;2949;50.778;7.094;2023-03-13T02:49:27;8.43;;;1.50;;
5845;SDS011;2949;50.778;7.094;2023-03-13T02:51:54;5.07;;;1.17;;
5845;SDS011;2949;50.778;7.094;2023-03-13T02:54:25;5.00;;;0.90;;
5845;SDS011;2949;50.778;7.094;2023-03-13T02:56:55;5.60;;;1.43;;
5845;SDS011;2949;50.778;7.094;2023-03-13T02:59:22;3.73;;;0.90;;
5845;SDS011;2949;50.778;7.094;2023-03-13T03:01:49;2.93;;;1.00;;
5845;SDS011;2949;50.778;7.094;2023-03-13T03:04:16;3.07;;;1.57;;
5845;SDS011;2949;50.778;7.094;2023-03-13T03:06:48;3.40;;;1.23;;
5845;SDS011;2949;50.778;7.094;2023-03-13T03:09:15;3.60;;;0.97;;
5845;SDS011;2949;50.778;7.094;2023-03-13T03:11:41;3.03;;;0.60;;
5845;SDS011;2949;50.778;7.094;2023-03-13T03:14:07;1.10;;;0.77;;
5845;SDS011;2949;50.778;7.094;2023-03-13T03:16:33;3.70;;;0.70;;
5845;SDS011;2949;50.778;7.094;2023-03-13T03:18:59;3.13;;;0.50;;
5845;SDS011;2949;50.778;7.094;2023-03-13T03:21:24;1.67;;;0.80;;
5845;SDS011;2949;50.778;7.094;2023-03-13T03:23:50;1.93;;;1.00;;
5845;SDS011;2949;50.778;7.094;2023-03-13T03:26:16;4.83;;;1.33;;
5845;SDS011;2949;50.778;7.094;2023-03-13T03:28:41;2.70;;;0.60;;
5845;SDS011;2949;50.778;7.094;2023-03-13T03:31:08;2.00;;;0.50;;
5845;SDS011;2949;50.778;7.094;2023-03-13T03:33:36;1.47;;;0.60;;
5845;SDS011;2949;50.778;7.094;2023-03-13T03:36:03;3.90;;;0.80;;
5845;SDS011;2949;50.778;7.094;2023-03-13T03:38:31;2.27;;;0.60;;
5845;SDS011;2949;50.778;7.094;2023-03-13T03:40:57;5.40;;;0.60;;
5845;SDS011;2949;50.778;7.094;2023-03-13T03:43:23;1.10;;;0.50;;
5845;SDS011;2949;50.778;7.094;2023-03-13T03:45:48;0.87;;;0.50;;
5845;SDS011;2949;50.778;7.094;2023-03-13T03:48:14;1.37;;;0.60;;
5845;SDS011;2949;50.778;7.094;2023-03-13T03:50:39;1.53;;;0.50;;
5845;SDS011;2949;50.778;7.094;2023-03-13T03:53:05;0.80;;;0.60;;
5845;SDS011;2949;50.778;7.094;2023-03-13T03:55:31;2.10;;;0.57;;
5845;SDS011;2949;50.778;7.094;2023-03-13T03:57:57;0.60;;;0.40;;
5845;SDS011;2949;50.778;7.094;2023-03-13T04:00:23;0.83;;;0.40;;
5845;SDS011;2949;50.778;7.094;2023-03-13T04:02:49;1.23;;;0.40;;
5845;SDS011;2949;50.778;7.094;2023-03-13T04:05:14;1.20;;;0.50;;
5845;SDS011;2949;50.778;7.094;2023-03-13T04:07:40;0.30;;;0.30;;
5845;SDS011;2949;50.778;7.094;2023-03-13T04:10:06;0.97;;;0.40;;
5845;SDS011;2949;50.778;7.094;2023-03-13T04:12:31;0.90;;;0.50;;
5845;SDS011;2949;50.778;7.094;2023-03-13T04:14:57;1.43;;;0.33;;
5845;SDS011;2949;50.778;7.094;2023-03-13T04:17:22;1.33;;;0.40;;
5845;SDS011;2949;50.778;7.094;2023-03-13T04:19:48;1.17;;;0.57;;
5845;SDS011;2949;50.778;7.094;2023-03-13T04:22:13;0.47;;;0.47;;
5845;SDS011;2949;50.778;7.094;2023-03-13T04:24:39;0.43;;;0.43;;
5845;SDS011;2949;50.778;7.094;2023-03-13T04:27:04;2.10;;;0.30;;
5845;SDS011;2949;50.778;7.094;2023-03-13T04:29:30;0.60;;;0.60;;
5845;SDS011;2949;50.778;7.094;2023-03-13T04:31:56;0.40;;;0.30;;
5845;SDS011;2949;50.778;7.094;2023-03-13T04:34:22;0.73;;;0.40;;
5845;SDS011;2949;50.778;7.094;2023-03-13T04:36:48;0.60;;;0.40;;
5845;SDS011;2949;50.778;7.094;2023-03-13T04:39:14;0.50;;;0.50;;
5845;SDS011;2949;50.778;7.094;2023-03-13T04:41:39;0.70;;;0.50;;
5845;SDS011;2949;50.778;7.094;2023-03-13T04:44:05;2.43;;;0.40;;
5845;SDS011;2949;50.778;7.094;2023-03-13T04:46:30;1.33;;;0.50;;
5845;SDS011;2949;50.778;7.094;2023-03-13T04:48:56;1.90;;;0.40;;
5845;SDS011;2949;50.778;7.094;2023-03-13T04:51:21;3.30;;;0.50;;
5845;SDS011;2949;50.778;7.094;2023-03-13T04:53:48;0.80;;;0.37;;
5845;SDS011;2949;50.778;7.094;2023-03-13T04:56:18;8.57;;;1.47;;
5845;SDS011;2949;50.778;7.094;2023-03-13T04:58:46;0.77;;;0.40;;
5845;SDS011;2949;50.778;7.094;2023-03-13T05:01:14;0.40;;;0.30;;
5845;SDS011;2949;50.778;7.094;2023-03-13T05:03:39;0.73;;;0.43;;
5845;SDS011;2949;50.778;7.094;2023-03-13T05:06:05;1.10;;;0.60;;
5845;SDS011;2949;50.778;7.094;2023-03-13T05:08:31;1.50;;;0.47;;
5845;SDS011;2949;50.778;7.094;2023-03-13T05:10:56;0.40;;;0.40;;
5845;SDS011;2949;50.778;7.094;2023-03-13T05:13:22;0.67;;;0.40;;
5845;SDS011;2949;50.778;7.094;2023-03-13T05:15:48;2.50;;;1.03;;
5845;SDS011;2949;50.778;7.094;2023-03-13T05:18:13;0.93;;;0.40;;
5845;SDS011;2949;50.778;7.094;2023-03-13T05:20:39;0.70;;;0.60;;
5845;SDS011;2949;50.778;7.094;2023-03-13T05:23:04;3.50;;;0.30;;
5845;SDS011;2949;50.778;7.094;2023-03-13T05:25:30;0.63;;;0.50;;
5845;SDS011;2949;50.778;7.094;2023-03-13T05:27:55;0.30;;;0.30;;
5845;SDS011;2949;50.778;7.094;2023-03-13T05:30:21;0.60;;;0.30;;
5845;SDS011;2949;50.778;7.094;2023-03-13T05:32:46;0.50;;;0.40;;
5845;SDS011;2949;50.778;7.094;2023-03-13T05:35:12;0.90;;;0.27;;
5845;SDS011;2949;50.778;7.094;2023-03-13T05:37:37;0.80;;;0.30;;
5845;SDS011;2949;50.778;7.094;2023-03-13T05:40:03;0.40;;;0.40;;
5845;SDS011;2949;50.778;7.094;2023-03-13T05:42:29;1.90;;;0.33;;
5845;SDS011;2949;50.778;7.094;2023-03-13T05:44:54;0.57;;;0.40;;
5845;SDS011;2949;50.778;7.094;2023-03-13T05:47:20;0.73;;;0.40;;
5845;SDS011;2949;50.778;7.094;2023-03-13T05:49:46;0.43;;;0.30;;
5845;SDS011;2949;50.778;7.094;2023-03-13T05:52:11;0.40;;;0.40;;
5845;SDS011;2949;50.778;7.094;2023-03-13T05:54:37;0.30;;;0.30;;
5845;SDS011;2949;50.778;7.094;2023-03-13T05:57:02;0.30;;;0.30;;
5845;SDS011;2949;50.778;7.094;2023-03-13T05:59:28;0.80;;;0.60;;
5845;SDS011;2949;50.778;7.094;2023-03-13T06:01:53;0.30;;;0.20;;
5845;SDS011;2949;50.778;7.094;2023-03-13T06:04:19;0.40;;;0.40;;
5845;SDS011;2949;50.778;7.094;2023-03-13T06:06:45;0.30;;;0.30;;
5845;SDS011;2949;50.778;7.094;2023-03-13T06:09:10;1.13;;;0.30;;
5845;SDS011;2949;50.778;7.094;2023-03-13T06:11:36;0.60;;;0.30;;
5845;SDS011;2949;50.778;7.094;2023-03-13T06:14:01;0.77;;;0.40;;
5845;SDS011;2949;50.778;7.094;2023-03-13T06:16:27;0.40;;;0.30;;
5845;SDS011;2949;50.778;7.094;2023-03-13T06:18:53;1.57;;;0.30;;
5845;SDS011;2949;50.778;7.094;2023-03-13T06:21:18;0.30;;;0.20;;
5845;SDS011;2949;50.778;7.094;2023-03-13T06:23:44;6.27;;;0.40;;
5845;SDS011;2949;50.778;7.094;2023-03-13T06:26:09;0.30;;;0.30;;
5845;SDS011;2949;50.778;7.094;2023-03-13T06:28:35;0.33;;;0.30;;
5845;SDS011;2949;50.778;7.094;2023-03-13T06:31:01;0.40;;;0.40;;
5845;SDS011;2949;50.778;7.094;2023-03-13T06:33:28;0.40;;;0.40;;
5845;SDS011;2949;50.778;7.094;2023-03-13T06:35:54;0.40;;;0.40;;
5845;SDS011;2949;50.778;7.094;2023-03-13T06:38:20;1.13;;;0.40;;
5845;SDS011;2949;50.778;7.094;2023-03-13T06:40:45;0.83;;;0.40;;
5845;SDS011;2949;50.778;7.094;2023-03-13T06:43:11;0.40;;;0.40;;
5845;SDS011;2949;50.778;7.094;2023-03-13T06:45:36;0.40;;;0.40;;
5845;SDS011;2949;50.778;7.094;2023-03-13T06:48:02;4.00;;;0.57;;
5845;SDS011;2949;50.778;7.094;2023-03-13T06:50:28;1.50;;;0.63;;
5845;SDS011;2949;50.778;7.094;2023-03-13T06:52:54;1.00;;;0.40;;
5845;SDS011;2949;50.778;7.094;2023-03-13T06:55:21;0.60;;;0.40;;
5845;SDS011;2949;50.778;7.094;2023-03-13T06:57:50;1.83;;;0.77;;
5845;SDS011;2949;50.778;7.094;2023-03-13T07:00:17;4.47;;;1.07;;
5845;SDS011;2949;50.778;7.094;2023-03-13T07:02:43;1.00;;;0.70;;
5845;SDS011;2949;50.778;7.094;2023-03-13T07:05:08;5.77;;;0.70;;
5845;SDS011;2949;50.778;7.094;2023-03-13T07:07:34;4.57;;;1.27;;
5845;SDS011;2949;50.778;7.094;2023-03-13T07:09:59;0.80;;;0.63;;
5845;SDS011;2949;50.778;7.094;2023-03-13T07:12:25;0.93;;;0.77;;
5845;SDS011;2949;50.778;7.094;2023-03-13T07:14:51;3.37;;;0.67;;
5845;SDS011;2949;50.778;7.094;2023-03-13T07:17:16;2.10;;;0.70;;
5845;SDS011;2949;50.778;7.094;2023-03-13T07:19:42;1.40;;;0.97;;
5845;SDS011;2949;50.778;7.094;2023-03-13T07:22:07;3.53;;;1.00;;
5845;SDS011;2949;50.778;7.094;2023-03-13T07:24:33;1.23;;;0.80;;
5845;SDS011;2949;50.778;7.094;2023-03-13T07:26:58;1.27;;;1.17;;
5845;SDS011;2949;50.778;7.094;2023-03-13T07:29:24;2.10;;;1.10;;
5845;SDS011;2949;50.778;7.094;2023-03-13T07:31:49;1.93;;;0.83;;
5845;SDS011;2949;50.778;7.094;2023-03-13T07:34:15;8.17;;;1.33;;
5845;SDS011;2949;50.778;7.094;2023-03-13T07:36:41;3.10;;;1.33;;
5845;SDS011;2949;50.778;7.094;2023-03-13T07:39:06;2.20;;;1.37;;
5845;SDS011;2949;50.778;7.094;2023-03-13T07:41:32;4.87;;;1.27;;
5845;SDS011;2949;50.778;7.094;2023-03-13T07:43:58;1.93;;;1.23;;
5845;SDS011;2949;50.778;7.094;2023-03-13T07:46:24;1.63;;;1.43;;
5845;SDS011;2949;50.778;7.094;2023-03-13T07:48:49;4.30;;;1.67;;
5845;SDS011;2949;50.778;7.094;2023-03-13T07:51:20;5.77;;;2.80;;
5845;SDS011;2949;50.778;7.094;2023-03-13T07:53:48;2.27;;;0.93;;
5845;SDS011;2949;50.778;7.094;2023-03-13T07:56:15;3.40;;;1.03;;
5845;SDS011;2949;50.778;7.094;2023-03-13T07:58:42;1.80;;;1.00;;
5845;SDS011;2949;50.778;7.094;2023-03-13T08:01:08;5.03;;;1.47;;
5845;SDS011;2949;50.778;7.094;2023-03-13T08:03:40;1.57;;;1.37;;
5845;SDS011;2949;50.778;7.094;2023-03-13T08:06:07;1.37;;;1.20;;
5845;SDS011;2949;50.778;7.094;2023-03-13T08:08:34;2.43;;;1.13;;
5845;SDS011;2949;50.778;7.094;2023-03-13T08:13:47;3.67;;;1.13;;
5845;SDS011;2949;50.778;7.094;2023-03-13T08:16:16;7.73;;;1.60;;
5845;SDS011;2949;50.778;7.094;2023-03-13T08:18:44;8.70;;;1.17;;
5845;SDS011;2949;50.778;7.094;2023-03-13T08:21:13;4.10;;;1.33;;
5845;SDS011;2949;50.778;7.094;2023-03-13T08:23:40;2.57;;;1.27;;
5845;SDS011;2949;50.778;7.094;2023-03-13T08:26:10;1.70;;;1.47;;
5845;SDS011;2949;50.778;7.094;2023-03-13T08:28:36;2.40;;;1.63;;
5845;SDS011;2949;50.778;7.094;2023-03-13T08:31:10;5.50;;;1.97;;
5845;SDS011;2949;50.778;7.094;2023-03-13T08:33:47;2.30;;;1.47;;
5845;SDS011;2949;50.778;7.094;2023-03-13T08:38:49;1.47;;;1.13;;
5845;SDS011;2949;50.778;7.094;2023-03-13T08:41:16;5.03;;;1.60;;
5845;SDS011;2949;50.778;7.094;2023-03-13T08:43:44;5.67;;;1.43;;
5845;SDS011;2949;50.778;7.094;2023-03-13T08:46:10;2.70;;;1.20;;
5845;SDS011;2949;50.778;7.094;2023-03-13T08:48:35;3.20;;;1.33;;
5845;SDS011;2949;50.778;7.094;2023-03-13T08:51:05;2.00;;;1.57;;
5845;SDS011;2949;50.778;7.094;2023-03-13T08:53:33;2.23;;;1.60;;
5845;SDS011;2949;50.778;7.094;2023-03-13T08:56:00;1.80;;;1.40;;
5845;SDS011;2949;50.778;7.094;2023-03-13T08:58:26;3.00;;;1.50;;
5845;SDS011;2949;50.778;7.094;2023-03-13T09:00:52;4.07;;;1.30;;
5845;SDS011;2949;50.778;7.094;2023-03-13T09:03:18;5.93;;;1.40;;
5845;SDS011;2949;50.778;7.094;2023-03-13T09:05:43;5.03;;;1.70;;
5845;SDS011;2949;50.778;7.094;2023-03-13T09:08:11;2.30;;;1.33;;
5845;SDS011;2949;50.778;7.094;2023-03-13T09:10:37;4.57;;;1.67;;
5845;SDS011;2949;50.778;7.094;2023-03-13T09:13:03;1.90;;;1.47;;
5845;SDS011;2949;50.778;7.094;2023-03-13T09:15:28;3.53;;;1.20;;
5845;SDS011;2949;50.778;7.094;2023-03-13T09:17:54;7.53;;;1.60;;
5845;SDS011;2949;50.778;7.094;2023-03-13T09:20:19;2.03;;;1.10;;
5845;SDS011;2949;50.778;7.094;2023-03-13T09:22:45;4.53;;;1.30;;
5845;SDS011;2949;50.778;7.094;2023-03-13T09:25:11;1.83;;;1.20;;
5845;SDS011;2949;50.778;7.094;2023-03-13T09:27:38;1.17;;;1.07;;
5845;SDS011;2949;50.778;7.094;2023-03-13T09:30:04;2.37;;;0.90;;
5845;SDS011;2949;50.778;7.094;2023-03-13T09:32:31;2.47;;;1.20;;
5845;SDS011;2949;50.778;7.094;2023-03-13T09:34:56;3.00;;;1.00;;
5845;SDS011;2949;50.778;7.094;2023-03-13T09:37:23;2.07;;;1.00;;
5845;SDS011;2949;50.778;7.094;2023-03-13T09:39:48;7.00;;;0.93;;
5845;SDS011;2949;50.778;7.094;2023-03-13T09:42:15;0.70;;;0.70;;
5845;SDS011;2949;50.778;7.094;2023-03-13T09:44:44;4.07;;;0.97;;
5845;SDS011;2949;50.778;7.094;2023-03-13T09:49:45;3.40;;;1.30;;
5845;SDS011;2949;50.778;7.094;2023-03-13T09:57:49;2.67;;;0.90;;
5845;SDS011;2949;50.778;7.094;2023-03-13T10:00:33;0.80;;;0.73;;
5845;SDS011;2949;50.778;7.094;2023-03-13T10:03:04;3.23;;;1.03;;
5845;SDS011;2949;50.778;7.094;2023-03-13T10:05:35;0.77;;;0.70;;
5845;SDS011;2949;50.778;7.094;2023-03-13T10:13:34;0.80;;;0.70;;
5845;SDS011;2949;50.778;7.094;2023-03-13T10:16:21;4.77;;;0.73;;
5845;SDS011;2949;50.778;7.094;2023-03-13T10:18:52;1.57;;;0.97;;
5845;SDS011;2949;50.778;7.094;2023-03-13T10:21:22;1.30;;;1.20;;
5845;SDS011;2949;50.778;7.094;2023-03-13T10:24:04;2.63;;;0.77;;
5845;SDS011;2949;50.778;7.094;2023-03-13T10:26:50;1.20;;;0.80;;
5845;SDS011;2949;50.778;7.094;2023-03-13T10:29:23;1.20;;;0.80;;
5845;SDS011;2949;50.778;7.094;2023-03-13T10:31:54;1.47;;;0.83;;
5845;SDS011;2949;50.778;7.094;2023-03-13T10:34:22;1.23;;;0.87;;
5845;SDS011;2949;50.778;7.094;2023-03-13T10:36:50;1.47;;;0.90;;
5845;SDS011;2949;50.778;7.094;2023-03-13T10:39:24;4.83;;;0.90;;
5845;SDS011;2949;50.778;7.094;2023-03-13T10:41:55;2.20;;;1.07;;
5845;SDS011;2949;50.778;7.094;2023-03-13T10:44:40;3.47;;;0.90;;
5845;SDS011;2949;50.778;7.094;2023-03-13T10:47:08;1.73;;;0.80;;
5845;SDS011;2949;50.778;7.094;2023-03-13T10:49:45;0.90;;;0.63;;
5845;SDS011;2949;50.778;7.094;2023-03-13T10:52:29;0.80;;;0.80;;
5845;SDS011;2949;50.778;7.094;2023-03-13T10:55:15;2.43;;;0.90;;
5845;SDS011;2949;50.778;7.094;2023-03-13T11:02:48;2.73;;;0.63;;
5845;SDS011;2949;50.778;7.094;2023-03-13T11:07:56;0.80;;;0.70;;
5845;SDS011;2949;50.778;7.094;2023-03-13T11:12:48;0.70;;;0.50;;
5845;SDS011;2949;50.778;7.094;2023-03-13T11:15:17;1.80;;;0.60;;
5845;SDS011;2949;50.778;7.094;2023-03-13T11:17:43;0.60;;;0.60;;
5845;SDS011;2949;50.778;7.094;2023-03-13T11:20:18;0.40;;;0.40;;
5845;SDS011;2949;50.778;7.094;2023-03-13T11:25:38;0.50;;;0.50;;
5845;SDS011;2949;50.778;7.094;2023-03-13T11:31:06;0.50;;;0.50;;
5845;SDS011;2949;50.778;7.094;2023-03-13T11:33:54;0.70;;;0.40;;
5845;SDS011;2949;50.778;7.094;2023-03-13T11:45:16;0.33;;;0.30;;
5845;SDS011;2949;50.778;7.094;2023-03-13T11:47:49;0.30;;;0.30;;
5845;SDS011;2949;50.778;7.094;2023-03-13T11:50:34;0.80;;;0.47;;
5845;SDS011;2949;50.778;7.094;2023-03-13T11:53:20;0.50;;;0.43;;
5845;SDS011;2949;50.778;7.094;2023-03-13T11:56:16;4.53;;;0.40;;
5845;SDS011;2949;50.778;7.094;2023-03-13T12:01:23;0.40;;;0.30;;
5845;SDS011;2949;50.778;7.094;2023-03-13T12:03:57;0.30;;;0.30;;
5845;SDS011;2949;50.778;7.094;2023-03-13T12:09:13;1.90;;;0.50;;
5845;SDS011;2949;50.778;7.094;2023-03-13T12:14:14;1.37;;;0.40;;
5845;SDS011;2949;50.778;7.094;2023-03-13T12:19:09;0.40;;;0.40;;
5845;SDS011;2949;50.778;7.094;2023-03-13T12:21:37;0.40;;;0.30;;
5845;SDS011;2949;50.778;7.094;2023-03-13T12:26:52;0.83;;;0.40;;
5845;SDS011;2949;50.778;7.094;2023-03-13T12:31:56;4.33;;;0.50;;
5845;SDS011;2949;50.778;7.094;2023-03-13T12:34:45;5.93;;;0.50;;
5845;SDS011;2949;50.778;7.094;2023-03-13T12:37:25;1.03;;;0.70;;
5845;SDS011;2949;50.778;7.094;2023-03-13T12:42:34;0.97;;;0.70;;
5845;SDS011;2949;50.778;7.094;2023-03-13T12:45:03;2.87;;;0.50;;
5845;SDS011;2949;50.778;7.094;2023-03-13T12:52:37;1.33;;;0.80;;
5845;SDS011;2949;50.778;7.094;2023-03-13T13:00:18;1.17;;;0.60;;
5845;SDS011;2949;50.778;7.094;2023-03-13T13:02:45;1.90;;;0.80;;
5845;SDS011;2949;50.778;7.094;2023-03-13T13:05:18;1.27;;;0.80;;
5845;SDS011;2949;50.778;7.094;2023-03-13T13:07:54;0.80;;;0.70;;
5845;SDS011;2949;50.778;7.094;2023-03-13T13:10:21;1.37;;;0.70;;
5845;SDS011;2949;50.778;7.094;2023-03-13T13:15:35;1.90;;;1.03;;
5845;SDS011;2949;50.778;7.094;2023-03-13T13:25:45;1.40;;;0.43;;
5845;SDS011;2949;50.778;7.094;2023-03-13T13:30:38;1.30;;;0.67;;
5845;SDS011;2949;50.778;7.094;2023-03-13T13:35:43;0.87;;;0.50;;
5845;SDS011;2949;50.778;7.094;2023-03-13T13:39:10;0.60;;;0.60;;
5845;SDS011;2949;50.778;7.094;2023-03-13T13:41:26;0.80;;;0.57;;
5845;SDS011;2949;50.778;7.094;2023-03-13T13:46:42;0.40;;;0.40;;
5845;SDS011;2949;50.778;7.094;2023-03-13T13:51:41;1.10;;;0.60;;
5845;SDS011;2949;50.778;7.094;2023-03-13T13:56:56;0.80;;;0.40;;
5845;SDS011;2949;50.778;7.094;2023-03-13T13:59:44;0.60;;;0.60;;
5845;SDS011;2949;50.778;7.094;2023-03-13T14:02:31;0.77;;;0.63;;
5845;SDS011;2949;50.778;7.094;2023-03-13T14:05:03;1.00;;;0.80;;
5845;SDS011;2949;50.778;7.094;2023-03-13T14:07:43;0.43;;;0.43;;
5845;SDS011;2949;50.778;7.094;2023-03-13T14:12:56;0.50;;;0.33;;
5845;SDS011;2949;50.778;7.094;2023-03-13T14:15:27;0.60;;;0.60;;
5845;SDS011;2949;50.778;7.094;2023-03-13T14:18:14;0.60;;;0.40;;
5845;SDS011;2949;50.778;7.094;2023-03-13T14:23:16;0.30;;;0.30;;
5845;SDS011;2949;50.778;7.094;2023-03-13T14:25:53;0.37;;;0.30;;
5845;SDS011;2949;50.778;7.094;2023-03-13T14:28:20;0.30;;;0.30;;
5845;SDS011;2949;50.778;7.094;2023-03-13T14:30:47;0.50;;;0.30;;
5845;SDS011;2949;50.778;7.094;2023-03-13T14:33:13;0.60;;;0.30;;
5845;SDS011;2949;50.778;7.094;2023-03-13T14:35:40;0.37;;;0.37;;
5845;SDS011;2949;50.778;7.094;2023-03-13T14:38:06;0.73;;;0.37;;
5845;SDS011;2949;50.778;7.094;2023-03-13T14:40:35;0.60;;;0.40;;
5845;SDS011;2949;50.778;7.094;2023-03-13T14:43:02;0.50;;;0.30;;
5845;SDS011;2949;50.778;7.094;2023-03-13T14:45:32;0.30;;;0.20;;
5845;SDS011;2949;50.778;7.094;2023-03-13T14:50:32;0.40;;;0.40;;
5845;SDS011;2949;50.778;7.094;2023-03-13T14:53:02;0.73;;;0.43;;
5845;SDS011;2949;50.778;7.094;2023-03-13T14:55:35;0.37;;;0.37;;
5845;SDS011;2949;50.778;7.094;2023-03-13T15:00:46;0.40;;;0.40;;
5845;SDS011;2949;50.778;7.094;2023-03-13T15:05:39;0.50;;;0.50;;
5845;SDS011;2949;50.778;7.094;2023-03-13T15:08:21;0.30;;;0.30;;
5845;SDS011;2949;50.778;7.094;2023-03-13T15:10:47;0.30;;;0.27;;
5845;SDS011;2949;50.778;7.094;2023-03-13T15:13:27;0.30;;;0.20;;
5845;SDS011;2949;50.778;7.094;2023-03-13T15:15:57;0.40;;;0.40;;
5845;SDS011;2949;50.778;7.094;2023-03-13T15:18:27;2.53;;;0.40;;
5845;SDS011;2949;50.778;7.094;2023-03-13T15:20:54;0.40;;;0.30;;
5845;SDS011;2949;50.778;7.094;2023-03-13T15:23:21;0.80;;;0.40;;
5845;SDS011;2949;50.778;7.094;2023-03-13T15:25:47;0.47;;;0.47;;
5845;SDS011;2949;50.778;7.094;2023-03-13T15:28:17;0.30;;;0.30;;
5845;SDS011;2949;50.778;7.094;2023-03-13T15:30:44;0.93;;;0.50;;
5845;SDS011;2949;50.778;7.094;2023-03-13T15:33:15;1.60;;;0.60;;
5845;SDS011;2949;50.778;7.094;2023-03-13T15:35:41;0.30;;;0.30;;
5845;SDS011;2949;50.778;7.094;2023-03-13T15:38:12;1.17;;;0.57;;
5845;SDS011;2949;50.778;7.094;2023-03-13T15:40:38;0.50;;;0.50;;
5845;SDS011;2949;50.778;7.094;2023-03-13T15:43:04;0.53;;;0.50;;
5845;SDS011;2949;50.778;7.094;2023-03-13T15:45:30;1.37;;;0.70;;
5845;SDS011;2949;50.778;7.094;2023-03-13T15:47:56;1.13;;;0.50;;
5845;SDS011;2949;50.778;7.094;2023-03-13T15:50:22;0.50;;;0.50;;
5845;SDS011;2949;50.778;7.094;2023-03-13T15:52:53;1.17;;;0.40;;
5845;SDS011;2949;50.778;7.094;2023-03-13T15:55:19;2.60;;;0.60;;
5845;SDS011;2949;50.778;7.094;2023-03-13T15:57:46;2.30;;;0.80;;
5845;SDS011;2949;50.778;7.094;2023-03-13T16:00:15;1.83;;;0.80;;
5845;SDS011;2949;50.778;7.094;2023-03-13T16:02:43;2.37;;;0.63;;
5845;SDS011;2949;50.778;7.094;2023-03-13T16:05:08;0.90;;;0.50;;
5845;SDS011;2949;50.778;7.094;2023-03-13T16:07:35;3.90;;;1.07;;
5845;SDS011;2949;50.778;7.094;2023-03-13T16:10:01;1.57;;;0.70;;
5845;SDS011;2949;50.778;7.094;2023-03-13T16:12:27;2.20;;;0.57;;
5845;SDS011;2949;50.778;7.094;2023-03-13T16:14:52;0.60;;;0.40;;
5845;SDS011;2949;50.778;7.094;2023-03-13T16:17:19;2.57;;;0.60;;
5845;SDS011;2949;50.778;7.094;2023-03-13T16:19:46;1.80;;;0.60;;
5845;SDS011;2949;50.778;7.094;2023-03-13T16:22:12;3.40;;;0.93;;
5845;SDS011;2949;50.778;7.094;2023-03-13T16:24:38;1.17;;;0.60;;
5845;SDS011;2949;50.778;7.094;2023-03-13T16:27:09;1.00;;;0.80;;
5845;SDS011;2949;50.778;7.094;2023-03-13T16:29:36;4.43;;;0.90;;
5845;SDS011;2949;50.778;7.094;2023-03-13T16:32:02;1.50;;;0.90;;
5845;SDS011;2949;50.778;7.094;2023-03-13T16:34:28;5.10;;;0.80;;
5845;SDS011;2949;50.778;7.094;2023-03-13T16:36:54;4.67;;;0.73;;
5845;SDS011;2949;50.778;7.094;2023-03-13T16:39:20;5.83;;;2.20;;
5845;SDS011;2949;50.778;7.094;2023-03-13T16:41:46;1.50;;;0.97;;
5845;SDS011;2949;50.778;7.094;2023-03-13T16:44:12;4.67;;;1.67;;
5845;SDS011;2949;50.778;7.094;2023-03-13T16:46:39;6.17;;;3.27;;
5845;SDS011;2949;50.778;7.094;2023-03-13T16:49:05;11.00;;;1.77;;
5845;SDS011;2949;50.778;7.094;2023-03-13T16:51:36;2.63;;;0.87;;
5845;SDS011;2949;50.778;7.094;2023-03-13T16:54:02;5.10;;;1.40;;
5845;SDS011;2949;50.778;7.094;2023-03-13T16:56:33;2.17;;;1.40;;
5845;SDS011;2949;50.778;7.094;2023-03-13T16:59:04;1.57;;;1.40;;
5845;SDS011;2949;50.778;7.094;2023-03-13T17:01:41;2.83;;;0.80;;
5845;SDS011;2949;50.778;7.094;2023-03-13T17:04:08;6.73;;;1.13;;
5845;SDS011;2949;50.778;7.094;2023-03-13T17:06:35;0.93;;;0.73;;
5845;SDS011;2949;50.778;7.094;2023-03-13T17:09:03;2.27;;;0.97;;
5845;SDS011;2949;50.778;7.094;2023-03-13T17:11:34;4.37;;;0.70;;